首页
METAR-TAF:

METAR-TAF

机场 :

滑鐵盧區國際機場

滑铁卢, 安大略省, 加拿大

纬度: 43-28N, 经度: 080-23W, 海拔: 317米

当前天气观测

该预报发布于28分钟前的21:00 UTC
风速17节,风向西转西北,有时为22节阵风
温度 22°C
湿度 50%
气压 1014 hPa
能見度: 14.5公里
少量云层高于6000英尺

METAR: CYKF 062100Z AUTO 29017G22KT 9SM FEW060 22/11 A2993 RMK SLP136 DENSITY ALT 2000FT

时间: 17:28 (21:28 UTC)

预报

该预报发布于1小时和50分钟前的19:38 UTC
预报有效从06日的 20点(UTC)到 07日的 08点(UTC)
风速15节,风向西转西北,有时为25节阵风
能見度: 10公里
少量云层高于6000英尺
从 07日的 0000点(UTC)
风速10节,风向北转西北,有时为20节阵风
能見度: 10公里
散云层高于4000英尺
成为
从 07日的 02点(UTC)到 07日的 04点(UTC)
风速8节,风向

TAF: CYKF 061938Z 0620/0708 30015G25KT P6SM FEW060 FM070000 33010G20KT P6SM SCT040 BECMG 0702/0704 35008KT RMK FCST BASED ON AUTO OBS. NXT FCST BY 070200Z

超过4000个机场的气象观测和天气预报(METAR&TAF报告)。

可查询的气象台以黄色和红色小点在地图上表示。

将鼠标移到小点上方,可查看气象台名称。

然后点击查看天气观测和预报。

如需切换地图:点击带黑十字的绿色按钮放大地图;点击带横线的绿色按钮缩小地图;或者点击绿色箭头查看邻近地区的地图。


METAR-TAF: